createdAt,value
2023-02-23T00:02:19.798Z,50.74
2023-02-23T00:04:48.269Z,50.51
2023-02-23T00:07:20.166Z,50.40
2023-02-23T00:09:48.461Z,49.85
2023-02-23T00:12:17.376Z,49.69
2023-02-23T00:14:45.792Z,49.33
2023-02-23T00:17:14.947Z,49.11
2023-02-23T00:19:44.112Z,48.94
2023-02-23T00:22:12.951Z,48.86
2023-02-23T00:24:47.535Z,48.80
2023-02-23T00:27:21.434Z,49.07
2023-02-23T00:29:51.117Z,49.13
2023-02-23T00:32:22.729Z,49.26
2023-02-23T00:34:52.662Z,49.66
2023-02-23T00:37:23.139Z,49.64
2023-02-23T00:39:54.497Z,49.83
2023-02-23T00:42:23.802Z,50.28
2023-02-23T00:44:52.308Z,50.42
2023-02-23T00:47:20.898Z,50.35
2023-02-23T00:49:50.776Z,50.56
2023-02-23T00:52:21.125Z,50.28
2023-02-23T00:54:51.583Z,50.35
2023-02-23T00:57:19.849Z,50.65
2023-02-23T00:59:51.019Z,50.94
2023-02-23T01:02:19.036Z,50.90
2023-02-23T01:04:47.108Z,50.88
2023-02-23T01:07:15.577Z,50.73
2023-02-23T01:09:43.950Z,51.05
2023-02-23T01:12:13.355Z,50.87
2023-02-23T01:14:47.838Z,51.20
2023-02-23T01:17:15.953Z,51.23
2023-02-23T01:19:44.544Z,51.51
2023-02-23T01:22:12.790Z,51.63
2023-02-23T01:24:41.812Z,51.43
2023-02-23T01:27:09.938Z,51.26
2023-02-23T01:29:39.878Z,51.16
2023-02-23T01:32:08.838Z,51.24
2023-02-23T01:34:38.884Z,51.23
2023-02-23T01:37:06.932Z,51.24
2023-02-23T01:39:35.004Z,51.22
2023-02-23T01:42:25.733Z,51.48
2023-02-23T01:44:53.778Z,51.50
2023-02-23T01:47:22.535Z,51.63
2023-02-23T01:49:51.203Z,51.71
2023-02-23T01:52:19.370Z,51.92
2023-02-23T01:54:51.293Z,52.25
2023-02-23T01:57:21.279Z,52.09
2023-02-23T01:59:51.108Z,52.03
2023-02-23T02:02:21.517Z,52.22
2023-02-23T02:04:52.445Z,52.32
2023-02-23T02:07:24.042Z,52.21
2023-02-23T02:10:12.603Z,52.04
2023-02-23T02:12:45.588Z,52.37
2023-02-23T02:15:19.687Z,52.49
2023-02-23T02:18:23.741Z,52.34
2023-02-23T02:21:17.824Z,52.39
2023-02-23T02:24:08.451Z,52.39
2023-02-23T02:26:49.908Z,52.33
2023-02-23T02:29:31.480Z,52.06
2023-02-23T02:32:02.756Z,52.29
2023-02-23T02:35:09.104Z,52.23
2023-02-23T02:37:56.974Z,52.07
2023-02-23T02:40:53.526Z,52.22
2023-02-23T02:43:42.967Z,52.13
2023-02-23T02:46:41.599Z,52.28
2023-02-23T02:49:26.738Z,52.11
2023-02-23T02:52:05.902Z,52.17
2023-02-23T02:54:47.934Z,52.21
2023-02-23T02:57:16.837Z,52.48
2023-02-23T03:00:04.585Z,52.35
2023-02-23T03:02:54.434Z,52.44
2023-02-23T03:05:48.156Z,52.58
2023-02-23T03:08:48.029Z,52.40
2023-02-23T03:11:35.294Z,52.35
2023-02-23T03:14:30.656Z,52.40
2023-02-23T03:17:27.446Z,52.33
2023-02-23T03:20:26.650Z,52.39
2023-02-23T03:23:19.546Z,52.22
2023-02-23T03:26:31.205Z,52.50
2023-02-23T03:29:29.019Z,52.30
2023-02-23T03:32:49.300Z,52.53
2023-02-23T03:35:47.622Z,52.59
2023-02-23T03:38:48.582Z,52.58
2023-02-23T03:41:35.157Z,52.64
2023-02-23T03:44:25.649Z,52.72
2023-02-23T03:47:12.846Z,52.85
2023-02-23T03:50:01.190Z,52.88
2023-02-23T03:52:52.071Z,52.81
2023-02-23T03:55:46.123Z,53.11
2023-02-23T03:58:37.584Z,53.11
2023-02-23T04:01:25.040Z,53.37
2023-02-23T04:04:12.253Z,53.29
2023-02-23T04:07:01.078Z,53.43
2023-02-23T04:09:48.292Z,53.15
2023-02-23T04:12:55.805Z,53.42
2023-02-23T04:15:33.430Z,53.30
2023-02-23T04:18:06.591Z,53.54
2023-02-23T04:20:35.509Z,53.43
2023-02-23T04:23:04.310Z,53.45
2023-02-23T04:25:33.050Z,53.31
2023-02-23T04:28:01.318Z,53.39
2023-02-23T04:30:30.500Z,53.33
2023-02-23T04:32:59.820Z,53.39
2023-02-23T04:35:30.117Z,53.24
2023-02-23T04:38:01.645Z,53.32
2023-02-23T04:40:30.095Z,53.14
2023-02-23T04:42:58.313Z,53.22
2023-02-23T04:45:26.806Z,53.50
2023-02-23T04:47:54.916Z,53.59
2023-02-23T04:50:25.403Z,53.53
2023-02-23T04:52:53.891Z,53.43
2023-02-23T04:55:23.113Z,53.53
2023-02-23T04:57:55.550Z,53.71
2023-02-23T05:00:25.622Z,53.65
2023-02-23T05:02:57.659Z,53.53
2023-02-23T05:05:27.645Z,53.57
2023-02-23T05:07:55.839Z,53.66
2023-02-23T05:10:24.905Z,53.64
2023-02-23T05:13:01.407Z,53.45
2023-02-23T05:15:35.070Z,53.52
2023-02-23T05:18:03.477Z,53.53
2023-02-23T05:20:34.254Z,53.25
2023-02-23T05:23:05.075Z,53.10
2023-02-23T05:25:33.870Z,53.01
2023-02-23T05:28:05.454Z,53.00
2023-02-23T05:30:34.736Z,52.89
2023-02-23T05:33:08.468Z,52.85
2023-02-23T05:35:54.290Z,52.90
2023-02-23T05:38:22.578Z,52.91
2023-02-23T05:41:14.800Z,52.91
2023-02-23T05:43:44.268Z,52.83
2023-02-23T05:46:17.489Z,52.64
2023-02-23T05:48:49.053Z,52.82
2023-02-23T05:51:18.756Z,52.62
2023-02-23T05:53:52.019Z,52.45
2023-02-23T05:56:24.069Z,52.43
2023-02-23T05:58:53.972Z,52.23
2023-02-23T06:01:24.667Z,52.12
2023-02-23T06:04:09.269Z,51.99
2023-02-23T06:06:39.618Z,51.71
2023-02-23T06:09:11.014Z,51.65
2023-02-23T06:11:41.131Z,51.47
2023-02-23T06:14:12.356Z,51.38
2023-02-23T06:16:48.597Z,51.30
2023-02-23T06:19:17.370Z,51.26
2023-02-23T06:21:47.785Z,51.33
2023-02-23T06:24:19.898Z,51.37
2023-02-23T06:26:51.888Z,51.47
2023-02-23T06:29:21.900Z,51.64
2023-02-23T06:31:52.450Z,51.64
2023-02-23T06:34:20.655Z,51.71
2023-02-23T06:36:51.200Z,51.64
2023-02-23T06:39:21.497Z,51.43
2023-02-23T06:41:52.486Z,51.43
2023-02-23T06:44:23.702Z,51.29
2023-02-23T06:46:52.123Z,51.28
2023-02-23T06:49:20.243Z,51.23
2023-02-23T06:51:51.237Z,51.26
2023-02-23T06:54:19.844Z,51.28
2023-02-23T06:56:49.097Z,51.11
2023-02-23T06:59:17.326Z,50.98
2023-02-23T07:01:47.888Z,51.08
2023-02-23T07:04:17.047Z,50.34
2023-02-23T07:06:45.674Z,49.46
2023-02-23T07:09:16.800Z,47.18
2023-02-23T07:11:45.629Z,44.30
2023-02-23T07:14:26.172Z,41.37
2023-02-23T07:16:55.130Z,38.32
2023-02-23T07:19:24.748Z,35.82
2023-02-23T07:21:53.737Z,34.34
2023-02-23T07:24:22.192Z,32.02
2023-02-23T07:26:50.783Z,30.72
2023-02-23T07:29:19.329Z,29.91
2023-02-23T07:31:50.134Z,29.77
2023-02-23T07:34:18.874Z,29.87
2023-02-23T07:36:47.429Z,30.43
2023-02-23T07:39:15.776Z,31.31
2023-02-23T07:41:44.069Z,32.19
2023-02-23T07:44:19.778Z,33.18
2023-02-23T07:46:52.912Z,34.18
2023-02-23T07:49:21.230Z,35.41
2023-02-23T07:51:49.855Z,36.53
2023-02-23T07:54:19.765Z,37.55
2023-02-23T07:56:48.031Z,38.00
2023-02-23T07:59:22.899Z,38.54
2023-02-23T08:01:52.673Z,39.20
2023-02-23T08:04:24.027Z,39.87
2023-02-23T08:06:52.298Z,40.17
2023-02-23T08:09:20.371Z,40.41
2023-02-23T08:11:49.722Z,40.66
2023-02-23T08:14:22.071Z,40.90
2023-02-23T08:16:51.645Z,41.05
2023-02-23T08:19:24.978Z,41.07
2023-02-23T08:21:55.466Z,41.17
2023-02-23T08:24:26.972Z,41.89
2023-02-23T08:26:58.720Z,42.03
2023-02-23T08:29:27.377Z,42.44
2023-02-23T08:31:58.614Z,42.46
2023-02-23T08:34:28.449Z,42.33
2023-02-23T08:36:56.960Z,42.44
2023-02-23T08:39:25.242Z,42.43
2023-02-23T08:41:58.216Z,42.15
2023-02-23T08:44:26.627Z,41.56
2023-02-23T08:46:55.918Z,41.42
2023-02-23T08:52:08.644Z,41.53
2023-02-23T08:54:37.360Z,41.54
2023-02-23T08:57:06.169Z,41.40
2023-02-23T08:59:39.326Z,41.23
2023-02-23T09:02:10.489Z,41.08
2023-02-23T09:04:41.912Z,40.82
2023-02-23T09:07:15.445Z,40.79
2023-02-23T09:09:43.702Z,40.76
2023-02-23T09:12:15.061Z,40.32
2023-02-23T09:14:48.472Z,40.13
2023-02-23T09:17:18.116Z,40.25
2023-02-23T09:19:48.059Z,40.41
2023-02-23T09:22:18.493Z,40.66
2023-02-23T09:24:46.643Z,40.41
2023-02-23T09:27:14.972Z,40.44
2023-02-23T09:29:44.762Z,40.37
2023-02-23T09:32:24.188Z,40.05
2023-02-23T09:34:57.248Z,40.16
2023-02-23T09:37:28.524Z,40.48
2023-02-23T09:39:59.338Z,40.67
2023-02-23T09:42:50.953Z,41.00
2023-02-23T09:45:26.640Z,41.21
2023-02-23T09:48:16.988Z,41.29
2023-02-23T09:50:53.340Z,41.31
2023-02-23T09:53:35.735Z,41.13
2023-02-23T09:56:23.361Z,41.28
2023-02-23T09:58:51.825Z,41.52
2023-02-23T10:01:46.421Z,41.97
2023-02-23T10:04:36.824Z,41.56
2023-02-23T10:07:21.556Z,41.23
2023-02-23T10:10:34.122Z,41.06
2023-02-23T10:13:23.837Z,41.45
2023-02-23T10:16:01.434Z,41.58
2023-02-23T10:18:54.966Z,41.70
2023-02-23T10:21:43.490Z,41.48
2023-02-23T10:24:20.802Z,41.25
2023-02-23T10:26:54.901Z,40.60
2023-02-23T10:29:49.703Z,40.47
2023-02-23T10:32:39.779Z,40.58
2023-02-23T10:35:15.946Z,40.74
2023-02-23T10:37:48.926Z,40.80
2023-02-23T10:40:29.013Z,40.88
2023-02-23T10:45:58.532Z,40.32
2023-02-23T10:48:43.416Z,40.27
2023-02-23T10:51:22.522Z,40.04
2023-02-23T10:53:56.061Z,39.68
2023-02-23T10:56:31.411Z,39.46
2023-02-23T10:59:11.690Z,39.19
2023-02-23T11:04:56.150Z,38.44
2023-02-23T11:07:42.557Z,38.03
2023-02-23T11:10:37.449Z,37.85
2023-02-23T11:13:21.291Z,37.94
2023-02-23T11:15:51.078Z,36.84
2023-02-23T11:18:23.665Z,36.52
2023-02-23T11:20:52.908Z,36.60
2023-02-23T11:23:34.152Z,36.63
2023-02-23T11:26:05.116Z,35.91
2023-02-23T11:29:16.510Z,35.79
2023-02-23T11:31:53.702Z,35.51
2023-02-23T11:34:35.980Z,35.54
2023-02-23T11:37:11.594Z,35.98
2023-02-23T11:39:54.152Z,36.01
2023-02-23T11:42:37.077Z,35.95
2023-02-23T11:45:15.328Z,36.13
2023-02-23T11:47:51.068Z,36.05
2023-02-23T11:50:30.142Z,36.06
2023-02-23T11:53:09.620Z,36.30
2023-02-23T11:58:45.856Z,35.91
2023-02-23T12:01:39.028Z,36.09
2023-02-23T12:04:23.589Z,36.22
2023-02-23T12:06:59.211Z,36.22
2023-02-23T12:09:34.014Z,36.24
2023-02-23T12:12:07.668Z,36.44
2023-02-23T12:14:52.223Z,36.31
2023-02-23T12:17:28.880Z,36.68
2023-02-23T12:20:12.746Z,36.73
2023-02-23T12:23:14.578Z,36.73
2023-02-23T12:25:59.952Z,36.61
2023-02-23T12:29:04.384Z,36.67
2023-02-23T12:31:46.498Z,36.77
2023-02-23T12:34:47.023Z,36.75
2023-02-23T12:37:29.405Z,36.77
2023-02-23T12:40:04.069Z,36.92
2023-02-23T12:43:09.069Z,36.91
2023-02-23T12:45:50.718Z,36.77
2023-02-23T12:48:51.373Z,36.54
2023-02-23T12:51:45.788Z,36.17
2023-02-23T12:54:15.813Z,36.32
2023-02-23T12:57:07.181Z,36.07
2023-02-23T13:00:24.465Z,36.13
2023-02-23T13:03:03.011Z,36.11
2023-02-23T13:05:34.179Z,36.20
2023-02-23T13:08:25.803Z,36.12
2023-02-23T13:11:26.664Z,35.81
2023-02-23T13:14:10.105Z,35.59
2023-02-23T13:16:56.680Z,35.72
2023-02-23T13:19:45.277Z,35.66
2023-02-23T13:22:33.822Z,35.63
2023-02-23T13:25:19.958Z,35.68
2023-02-23T13:28:00.120Z,35.67
2023-02-23T13:30:32.674Z,35.59
2023-02-23T13:33:07.092Z,35.64
2023-02-23T13:35:35.706Z,35.63
2023-02-23T13:38:18.100Z,35.63
2023-02-23T13:41:10.439Z,35.48
2023-02-23T13:43:53.124Z,35.28
2023-02-23T13:46:25.800Z,35.17
2023-02-23T13:48:59.273Z,34.99
2023-02-23T13:51:35.699Z,35.09
2023-02-23T13:54:20.104Z,34.97
2023-02-23T13:56:54.949Z,34.89
2023-02-23T13:59:26.210Z,34.89
2023-02-23T14:01:54.761Z,34.89
2023-02-23T14:04:26.882Z,34.66
2023-02-23T14:07:10.524Z,34.28
2023-02-23T14:09:54.664Z,34.36
2023-02-23T14:12:40.903Z,34.45
2023-02-23T14:15:28.364Z,34.32
2023-02-23T14:18:04.620Z,34.15
2023-02-23T14:20:39.366Z,34.33
2023-02-23T14:23:20.410Z,34.23
2023-02-23T14:25:52.456Z,34.06
2023-02-23T14:28:26.034Z,33.88
2023-02-23T14:31:10.303Z,33.64
2023-02-23T14:33:39.005Z,33.77
2023-02-23T14:36:22.479Z,33.83
2023-02-23T14:39:24.602Z,34.07
2023-02-23T14:41:58.196Z,34.30
2023-02-23T14:44:32.724Z,34.42
2023-02-23T14:47:15.085Z,34.78
2023-02-23T14:49:45.800Z,35.03
2023-02-23T14:52:21.185Z,35.06
2023-02-23T14:54:49.341Z,35.18
2023-02-23T14:57:20.315Z,35.38
2023-02-23T15:00:15.287Z,35.38
2023-02-23T15:02:59.501Z,35.22
2023-02-23T15:05:33.464Z,35.27
2023-02-23T15:08:07.302Z,35.46
2023-02-23T15:10:49.064Z,35.36
2023-02-23T15:16:08.059Z,35.53
2023-02-23T15:18:40.662Z,35.59
2023-02-23T15:21:16.849Z,35.59
2023-02-23T15:23:46.769Z,35.65
2023-02-23T15:26:24.355Z,35.72
2023-02-23T15:28:53.156Z,35.51
2023-02-23T15:31:22.513Z,35.53
2023-02-23T15:33:52.157Z,35.78
2023-02-23T15:36:35.066Z,35.81
2023-02-23T15:39:12.391Z,35.70
2023-02-23T15:41:45.753Z,35.61
2023-02-23T15:44:19.359Z,35.71
2023-02-23T15:46:58.129Z,35.61
2023-02-23T15:49:32.516Z,35.38
2023-02-23T15:54:57.181Z,35.22
2023-02-23T15:57:44.513Z,35.01
2023-02-23T16:00:27.448Z,35.06
2023-02-23T16:02:57.131Z,34.97
2023-02-23T16:05:30.362Z,35.02
2023-02-23T16:08:05.425Z,35.01
2023-02-23T16:10:42.248Z,34.97
2023-02-23T16:13:13.442Z,35.26
2023-02-23T16:15:43.037Z,35.18
2023-02-23T16:18:23.353Z,35.02
2023-02-23T16:20:56.246Z,34.95
2023-02-23T16:23:35.663Z,34.76
2023-02-23T16:26:10.922Z,34.68
2023-02-23T16:28:44.901Z,34.41
2023-02-23T16:31:14.398Z,34.22
2023-02-23T16:33:44.569Z,34.32
2023-02-23T16:36:16.150Z,34.51
2023-02-23T16:39:07.807Z,34.64
2023-02-23T16:41:37.101Z,34.73
2023-02-23T16:44:11.588Z,34.99
2023-02-23T16:47:09.833Z,35.03
2023-02-23T16:49:39.094Z,35.31
2023-02-23T16:52:15.582Z,35.54
2023-02-23T16:54:48.757Z,35.96
2023-02-23T16:57:30.898Z,37.01
2023-02-23T17:00:00.569Z,37.53
2023-02-23T17:02:29.331Z,38.00
2023-02-23T17:04:59.098Z,38.42
2023-02-23T17:07:33.510Z,38.83
2023-02-23T17:10:01.811Z,39.05
2023-02-23T17:12:36.010Z,39.31
2023-02-23T17:15:04.530Z,39.61
2023-02-23T17:17:33.167Z,40.00
2023-02-23T17:20:01.299Z,40.16
2023-02-23T17:22:30.236Z,40.34
2023-02-23T17:24:58.606Z,40.60
2023-02-23T17:27:26.790Z,41.05
2023-02-23T17:29:54.991Z,41.35
2023-02-23T17:32:24.503Z,41.73
2023-02-23T17:34:54.630Z,41.95
2023-02-23T17:37:23.555Z,41.95
2023-02-23T17:39:54.170Z,42.13
2023-02-23T17:42:24.616Z,42.36
2023-02-23T17:44:53.573Z,42.64
2023-02-23T17:47:21.940Z,42.71
2023-02-23T17:49:50.048Z,42.75
2023-02-23T17:52:19.746Z,42.80
2023-02-23T17:54:48.126Z,43.11
2023-02-23T17:57:16.777Z,43.15
2023-02-23T17:59:44.837Z,43.22
2023-02-23T18:02:18.275Z,43.27
2023-02-23T18:04:47.796Z,43.19
2023-02-23T18:07:16.451Z,43.23
2023-02-23T18:09:45.227Z,43.46
2023-02-23T18:12:14.200Z,43.77
2023-02-23T18:14:43.093Z,43.62
2023-02-23T18:17:11.618Z,43.80
2023-02-23T18:19:41.740Z,43.84
2023-02-23T18:22:10.387Z,44.03
2023-02-23T18:24:38.578Z,43.91
2023-02-23T18:27:06.688Z,44.12
2023-02-23T18:29:35.426Z,43.93
2023-02-23T18:32:04.535Z,43.90
2023-02-23T18:34:32.987Z,43.91
2023-02-23T18:37:02.520Z,43.95
2023-02-23T18:39:32.665Z,44.24
2023-02-23T18:42:01.453Z,44.21
2023-02-23T18:44:30.279Z,44.34
2023-02-23T18:46:58.813Z,44.53
2023-02-23T18:49:29.390Z,44.66
2023-02-23T18:52:01.745Z,44.63
2023-02-23T18:54:30.267Z,44.80
2023-02-23T18:56:58.468Z,44.86
2023-02-23T18:59:27.021Z,44.96
2023-02-23T19:01:55.526Z,44.96
2023-02-23T19:04:25.047Z,44.97
2023-02-23T19:06:54.889Z,44.89
2023-02-23T19:09:27.520Z,44.97
2023-02-23T19:11:56.005Z,45.14
2023-02-23T19:14:46.438Z,45.27
2023-02-23T19:17:15.932Z,45.57
2023-02-23T19:19:44.081Z,45.93
2023-02-23T19:22:12.204Z,45.95
2023-02-23T19:24:40.974Z,45.85
2023-02-23T19:27:10.231Z,45.99
2023-02-23T19:29:40.100Z,46.26
2023-02-23T19:32:09.349Z,46.21
2023-02-23T19:34:40.112Z,46.31
2023-02-23T19:37:09.281Z,46.22
2023-02-23T19:39:39.988Z,46.30
2023-02-23T19:42:09.298Z,46.59
2023-02-23T19:44:38.865Z,46.59
2023-02-23T19:47:07.157Z,46.37
2023-02-23T19:49:37.513Z,46.43
2023-02-23T19:52:05.585Z,46.33
2023-02-23T19:54:41.951Z,46.37
2023-02-23T19:57:10.552Z,46.19
2023-02-23T19:59:38.897Z,46.36
2023-02-23T20:02:06.984Z,46.40
2023-02-23T20:04:36.108Z,46.37
2023-02-23T20:07:04.479Z,46.46
2023-02-23T20:09:33.107Z,46.60
2023-02-23T20:12:07.118Z,46.62
2023-02-23T20:14:39.039Z,46.57
2023-02-23T20:17:09.222Z,46.54
2023-02-23T20:19:38.308Z,46.87
2023-02-23T20:22:09.025Z,46.93
2023-02-23T20:24:40.556Z,46.82
2023-02-23T20:27:09.006Z,46.92
2023-02-23T20:29:37.655Z,46.75
2023-02-23T20:32:06.016Z,46.77
2023-02-23T20:34:35.774Z,46.64
2023-02-23T20:37:04.492Z,46.95
2023-02-23T20:39:33.527Z,46.98
2023-02-23T20:42:01.697Z,47.01
2023-02-23T20:44:31.408Z,47.03
2023-02-23T20:47:01.482Z,47.20
2023-02-23T20:49:30.890Z,47.25
2023-02-23T20:51:58.955Z,47.43
2023-02-23T20:54:27.701Z,47.38
2023-02-23T20:57:07.688Z,47.43
2023-02-23T20:59:36.621Z,47.62
2023-02-23T21:02:05.839Z,47.84
2023-02-23T21:04:38.326Z,48.15
2023-02-23T21:07:06.964Z,48.20
2023-02-23T21:09:36.785Z,48.33
2023-02-23T21:12:04.944Z,48.65
2023-02-23T21:14:39.013Z,48.91
2023-02-23T21:17:07.075Z,48.87
2023-02-23T21:19:36.541Z,49.46
2023-02-23T21:22:04.991Z,49.64
2023-02-23T21:24:34.923Z,49.71
2023-02-23T21:27:05.424Z,49.78
2023-02-23T21:29:34.347Z,50.03
2023-02-23T21:32:02.456Z,50.18
2023-02-23T21:34:30.994Z,50.37
2023-02-23T21:37:09.881Z,50.49
2023-02-23T21:39:38.724Z,50.80
2023-02-23T21:42:07.647Z,50.83
2023-02-23T21:44:36.134Z,51.19
2023-02-23T21:47:07.330Z,51.39
2023-02-23T21:49:38.666Z,51.59
2023-02-23T21:52:08.592Z,51.89
2023-02-23T21:54:36.638Z,51.80
2023-02-23T21:57:05.652Z,52.11
2023-02-23T21:59:35.736Z,52.38
2023-02-23T22:02:04.247Z,52.65
2023-02-23T22:04:35.770Z,52.67
2023-02-23T22:07:04.698Z,52.63
2023-02-23T22:09:33.013Z,52.83
2023-02-23T22:12:01.116Z,52.98
2023-02-23T22:14:30.731Z,53.36
2023-02-23T22:16:59.458Z,53.45
2023-02-23T22:19:27.494Z,53.66
2023-02-23T22:21:56.032Z,53.72
2023-02-23T22:24:24.800Z,53.77
2023-02-23T22:26:56.794Z,53.99
2023-02-23T22:29:25.861Z,54.15
2023-02-23T22:31:54.282Z,54.28
2023-02-23T22:34:22.984Z,54.10
2023-02-23T22:36:54.071Z,54.55
2023-02-23T22:39:22.161Z,54.52
2023-02-23T22:41:50.661Z,54.62
2023-02-23T22:44:21.437Z,54.72
2023-02-23T22:46:49.652Z,54.80
2023-02-23T22:49:20.283Z,54.77
2023-02-23T22:51:48.715Z,54.95
2023-02-23T22:54:17.601Z,55.09
2023-02-23T22:56:47.077Z,55.13
2023-02-23T22:59:17.785Z,55.34
2023-02-23T23:01:49.062Z,55.61
2023-02-23T23:04:19.600Z,55.78
2023-02-23T23:06:47.813Z,55.62
2023-02-23T23:09:21.282Z,55.82
2023-02-23T23:11:51.400Z,55.83
2023-02-23T23:14:25.111Z,56.21
2023-02-23T23:16:54.881Z,56.21
2023-02-23T23:19:25.848Z,56.51
2023-02-23T23:21:55.448Z,56.59
2023-02-23T23:24:27.355Z,56.74
2023-02-23T23:27:00.272Z,56.65
2023-02-23T23:29:30.868Z,56.74
2023-02-23T23:31:59.167Z,56.99
2023-02-23T23:34:27.701Z,57.10
2023-02-23T23:36:57.865Z,57.12
2023-02-23T23:39:26.462Z,57.37
2023-02-23T23:41:54.717Z,57.44
2023-02-23T23:44:24.183Z,57.45
2023-02-23T23:46:53.031Z,57.52
2023-02-23T23:49:25.820Z,57.66
2023-02-23T23:51:58.055Z,57.83
2023-02-23T23:54:31.137Z,58.02
2023-02-23T23:57:03.723Z,58.00
2023-02-23T23:59:33.530Z,58.32
